sensor_id;sensor_type;location;lat;lon;timestamp;P1;durP1;ratioP1;P2;durP2;ratioP2
34725;SDS011;20951;50.818;4.344;2023-02-01T00:00:08;46.28;;;21.70;;
34725;SDS011;20951;50.818;4.344;2023-02-01T00:02:35;49.15;;;21.05;;
34725;SDS011;20951;50.818;4.344;2023-02-01T00:05:04;42.92;;;19.80;;
34725;SDS011;20951;50.818;4.344;2023-02-01T00:07:31;46.92;;;20.20;;
34725;SDS011;20951;50.818;4.344;2023-02-01T00:09:56;37.13;;;19.98;;
34725;SDS011;20951;50.818;4.344;2023-02-01T00:12:22;37.30;;;20.90;;
34725;SDS011;20951;50.818;4.344;2023-02-01T00:14:48;52.10;;;21.70;;
34725;SDS011;20951;50.818;4.344;2023-02-01T00:17:14;47.67;;;22.35;;
34725;SDS011;20951;50.818;4.344;2023-02-01T00:19:39;46.47;;;21.77;;
34725;SDS011;20951;50.818;4.344;2023-02-01T00:22:05;43.53;;;20.60;;
34725;SDS011;20951;50.818;4.344;2023-02-01T00:24:31;42.13;;;20.08;;
34725;SDS011;20951;50.818;4.344;2023-02-01T00:26:57;47.88;;;20.60;;
34725;SDS011;20951;50.818;4.344;2023-02-01T00:29:23;44.35;;;20.63;;
34725;SDS011;20951;50.818;4.344;2023-02-01T00:31:49;43.22;;;19.33;;
34725;SDS011;20951;50.818;4.344;2023-02-01T00:34:17;41.17;;;18.10;;
34725;SDS011;20951;50.818;4.344;2023-02-01T00:36:44;42.38;;;18.05;;
34725;SDS011;20951;50.818;4.344;2023-02-01T00:39:10;41.03;;;16.88;;
34725;SDS011;20951;50.818;4.344;2023-02-01T00:41:40;36.60;;;15.32;;
34725;SDS011;20951;50.818;4.344;2023-02-01T00:44:06;37.83;;;14.98;;
34725;SDS011;20951;50.818;4.344;2023-02-01T00:46:32;35.55;;;14.95;;
34725;SDS011;20951;50.818;4.344;2023-02-01T00:48:57;40.53;;;16.63;;
34725;SDS011;20951;50.818;4.344;2023-02-01T00:51:24;30.60;;;14.00;;
34725;SDS011;20951;50.818;4.344;2023-02-01T00:53:52;33.97;;;14.32;;
34725;SDS011;20951;50.818;4.344;2023-02-01T00:56:19;31.58;;;12.98;;
34725;SDS011;20951;50.818;4.344;2023-02-01T00:58:45;30.67;;;12.35;;
34725;SDS011;20951;50.818;4.344;2023-02-01T01:01:12;27.65;;;12.05;;
34725;SDS011;20951;50.818;4.344;2023-02-01T01:03:49;33.35;;;12.13;;
34725;SDS011;20951;50.818;4.344;2023-02-01T01:06:25;35.25;;;12.25;;
34725;SDS011;20951;50.818;4.344;2023-02-01T01:08:55;31.73;;;11.20;;
34725;SDS011;20951;50.818;4.344;2023-02-01T01:11:24;29.98;;;10.38;;
34725;SDS011;20951;50.818;4.344;2023-02-01T01:13:55;31.92;;;11.18;;
34725;SDS011;20951;50.818;4.344;2023-02-01T01:16:22;31.23;;;9.73;;
34725;SDS011;20951;50.818;4.344;2023-02-01T01:18:50;29.85;;;9.32;;
34725;SDS011;20951;50.818;4.344;2023-02-01T01:21:16;27.40;;;9.00;;
34725;SDS011;20951;50.818;4.344;2023-02-01T01:23:43;29.45;;;8.73;;
34725;SDS011;20951;50.818;4.344;2023-02-01T01:26:12;27.35;;;8.20;;
34725;SDS011;20951;50.818;4.344;2023-02-01T01:28:40;29.95;;;8.35;;
34725;SDS011;20951;50.818;4.344;2023-02-01T01:31:09;30.95;;;8.20;;
34725;SDS011;20951;50.818;4.344;2023-02-01T01:33:36;33.03;;;7.28;;
34725;SDS011;20951;50.818;4.344;2023-02-01T01:36:03;24.30;;;6.97;;
34725;SDS011;20951;50.818;4.344;2023-02-01T01:38:31;25.42;;;6.20;;
34725;SDS011;20951;50.818;4.344;2023-02-01T01:40:56;25.27;;;6.45;;
34725;SDS011;20951;50.818;4.344;2023-02-01T01:43:22;26.65;;;5.65;;
34725;SDS011;20951;50.818;4.344;2023-02-01T01:45:48;29.10;;;6.50;;
34725;SDS011;20951;50.818;4.344;2023-02-01T01:48:18;27.15;;;6.20;;
34725;SDS011;20951;50.818;4.344;2023-02-01T01:50:57;23.83;;;5.72;;
34725;SDS011;20951;50.818;4.344;2023-02-01T01:53:42;17.17;;;5.47;;
34725;SDS011;20951;50.818;4.344;2023-02-01T01:56:12;25.90;;;5.80;;
34725;SDS011;20951;50.818;4.344;2023-02-01T01:58:39;25.23;;;5.55;;
34725;SDS011;20951;50.818;4.344;2023-02-01T02:01:06;23.60;;;5.03;;
34725;SDS011;20951;50.818;4.344;2023-02-01T02:03:37;20.67;;;4.95;;
34725;SDS011;20951;50.818;4.344;2023-02-01T02:06:11;23.42;;;4.97;;
34725;SDS011;20951;50.818;4.344;2023-02-01T02:08:49;23.92;;;5.40;;
34725;SDS011;20951;50.818;4.344;2023-02-01T02:11:15;21.70;;;5.47;;
34725;SDS011;20951;50.818;4.344;2023-02-01T02:13:43;25.20;;;5.20;;
34725;SDS011;20951;50.818;4.344;2023-02-01T02:32:33;21.35;;;5.50;;
34725;SDS011;20951;50.818;4.344;2023-02-01T02:35:23;31.40;;;6.10;;
34725;SDS011;20951;50.818;4.344;2023-02-01T02:46:40;23.25;;;5.60;;
34725;SDS011;20951;50.818;4.344;2023-02-01T02:49:35;23.13;;;4.85;;
34725;SDS011;20951;50.818;4.344;2023-02-01T02:52:10;25.17;;;5.55;;
34725;SDS011;20951;50.818;4.344;2023-02-01T02:55:00;26.27;;;5.20;;
34725;SDS011;20951;50.818;4.344;2023-02-01T02:57:34;31.30;;;5.65;;
34725;SDS011;20951;50.818;4.344;2023-02-01T03:00:22;25.27;;;6.00;;
34725;SDS011;20951;50.818;4.344;2023-02-01T03:03:11;28.35;;;5.40;;
34725;SDS011;20951;50.818;4.344;2023-02-01T03:05:57;26.63;;;5.10;;
34725;SDS011;20951;50.818;4.344;2023-02-01T03:08:29;28.08;;;4.97;;
34725;SDS011;20951;50.818;4.344;2023-02-01T03:11:08;24.50;;;4.65;;
34725;SDS011;20951;50.818;4.344;2023-02-01T03:21:24;23.70;;;4.95;;
34725;SDS011;20951;50.818;4.344;2023-02-01T03:23:56;31.23;;;5.20;;
34725;SDS011;20951;50.818;4.344;2023-02-01T03:26:27;20.77;;;4.05;;
34725;SDS011;20951;50.818;4.344;2023-02-01T03:28:57;22.25;;;4.45;;
34725;SDS011;20951;50.818;4.344;2023-02-01T03:31:30;25.40;;;4.72;;
34725;SDS011;20951;50.818;4.344;2023-02-01T03:33:57;22.05;;;4.97;;
34725;SDS011;20951;50.818;4.344;2023-02-01T03:36:28;19.92;;;4.43;;
34725;SDS011;20951;50.818;4.344;2023-02-01T03:42:10;25.25;;;4.95;;
34725;SDS011;20951;50.818;4.344;2023-02-01T03:44:39;24.10;;;5.05;;
34725;SDS011;20951;50.818;4.344;2023-02-01T03:47:21;21.67;;;4.95;;
34725;SDS011;20951;50.818;4.344;2023-02-01T03:49:53;23.40;;;4.60;;
34725;SDS011;20951;50.818;4.344;2023-02-01T03:52:28;26.27;;;5.20;;
34725;SDS011;20951;50.818;4.344;2023-02-01T03:54:59;24.75;;;4.60;;
34725;SDS011;20951;50.818;4.344;2023-02-01T03:57:28;22.92;;;4.82;;
34725;SDS011;20951;50.818;4.344;2023-02-01T04:00:08;24.40;;;4.70;;
34725;SDS011;20951;50.818;4.344;2023-02-01T04:02:40;29.00;;;5.40;;
34725;SDS011;20951;50.818;4.344;2023-02-01T04:05:06;32.35;;;5.30;;
34725;SDS011;20951;50.818;4.344;2023-02-01T04:07:32;24.40;;;4.82;;
34725;SDS011;20951;50.818;4.344;2023-02-01T04:09:58;18.33;;;4.63;;
34725;SDS011;20951;50.818;4.344;2023-02-01T04:12:23;31.73;;;4.93;;
34725;SDS011;20951;50.818;4.344;2023-02-01T04:14:49;21.77;;;4.65;;
34725;SDS011;20951;50.818;4.344;2023-02-01T04:17:15;26.13;;;5.47;;
34725;SDS011;20951;50.818;4.344;2023-02-01T04:19:41;27.30;;;5.57;;
34725;SDS011;20951;50.818;4.344;2023-02-01T04:22:07;32.58;;;5.28;;
34725;SDS011;20951;50.818;4.344;2023-02-01T04:24:32;27.60;;;5.40;;
34725;SDS011;20951;50.818;4.344;2023-02-01T04:26:58;28.10;;;4.80;;
34725;SDS011;20951;50.818;4.344;2023-02-01T04:29:24;28.58;;;5.35;;
34725;SDS011;20951;50.818;4.344;2023-02-01T04:31:50;23.38;;;4.72;;
34725;SDS011;20951;50.818;4.344;2023-02-01T04:34:16;27.13;;;5.32;;
34725;SDS011;20951;50.818;4.344;2023-02-01T04:36:41;26.25;;;5.28;;
34725;SDS011;20951;50.818;4.344;2023-02-01T04:39:08;28.73;;;5.30;;
34725;SDS011;20951;50.818;4.344;2023-02-01T04:41:35;31.08;;;5.90;;
34725;SDS011;20951;50.818;4.344;2023-02-01T04:44:00;25.25;;;4.97;;
34725;SDS011;20951;50.818;4.344;2023-02-01T04:46:26;24.75;;;5.00;;
34725;SDS011;20951;50.818;4.344;2023-02-01T04:48:52;25.45;;;5.53;;
34725;SDS011;20951;50.818;4.344;2023-02-01T04:51:18;24.73;;;5.47;;
34725;SDS011;20951;50.818;4.344;2023-02-01T04:53:44;24.45;;;5.93;;
34725;SDS011;20951;50.818;4.344;2023-02-01T04:56:10;28.50;;;4.57;;
34725;SDS011;20951;50.818;4.344;2023-02-01T04:58:37;26.25;;;4.63;;
34725;SDS011;20951;50.818;4.344;2023-02-01T05:01:03;25.85;;;5.18;;
34725;SDS011;20951;50.818;4.344;2023-02-01T05:03:30;19.75;;;5.22;;
34725;SDS011;20951;50.818;4.344;2023-02-01T05:05:58;27.08;;;4.82;;
34725;SDS011;20951;50.818;4.344;2023-02-01T05:08:25;28.33;;;4.80;;
34725;SDS011;20951;50.818;4.344;2023-02-01T05:10:52;28.88;;;4.90;;
34725;SDS011;20951;50.818;4.344;2023-02-01T05:13:18;24.63;;;5.18;;
34725;SDS011;20951;50.818;4.344;2023-02-01T05:16:02;27.88;;;5.47;;
34725;SDS011;20951;50.818;4.344;2023-02-01T05:18:28;28.92;;;4.90;;
34725;SDS011;20951;50.818;4.344;2023-02-01T05:20:54;34.85;;;6.28;;
34725;SDS011;20951;50.818;4.344;2023-02-01T05:23:20;27.88;;;4.70;;
34725;SDS011;20951;50.818;4.344;2023-02-01T05:25:45;21.20;;;4.00;;
34725;SDS011;20951;50.818;4.344;2023-02-01T05:28:12;26.67;;;4.35;;
34725;SDS011;20951;50.818;4.344;2023-02-01T05:30:38;30.63;;;5.43;;
34725;SDS011;20951;50.818;4.344;2023-02-01T05:33:04;24.52;;;5.13;;
34725;SDS011;20951;50.818;4.344;2023-02-01T05:35:30;27.70;;;4.93;;
34725;SDS011;20951;50.818;4.344;2023-02-01T05:37:56;27.65;;;4.45;;
34725;SDS011;20951;50.818;4.344;2023-02-01T05:40:21;26.20;;;4.47;;
34725;SDS011;20951;50.818;4.344;2023-02-01T05:42:47;27.88;;;4.95;;
34725;SDS011;20951;50.818;4.344;2023-02-01T05:45:13;22.02;;;5.03;;
34725;SDS011;20951;50.818;4.344;2023-02-01T05:47:39;25.95;;;4.75;;
34725;SDS011;20951;50.818;4.344;2023-02-01T05:50:05;22.30;;;4.63;;
34725;SDS011;20951;50.818;4.344;2023-02-01T05:52:32;26.00;;;4.25;;
34725;SDS011;20951;50.818;4.344;2023-02-01T05:54:58;27.35;;;5.00;;
34725;SDS011;20951;50.818;4.344;2023-02-01T05:57:24;26.50;;;5.18;;
34725;SDS011;20951;50.818;4.344;2023-02-01T05:59:50;28.15;;;5.07;;
34725;SDS011;20951;50.818;4.344;2023-02-01T06:02:16;35.67;;;4.82;;
34725;SDS011;20951;50.818;4.344;2023-02-01T06:04:42;35.90;;;5.85;;
34725;SDS011;20951;50.818;4.344;2023-02-01T06:07:08;26.80;;;5.20;;
34725;SDS011;20951;50.818;4.344;2023-02-01T06:09:35;29.95;;;4.75;;
34725;SDS011;20951;50.818;4.344;2023-02-01T06:12:02;27.65;;;5.07;;
34725;SDS011;20951;50.818;4.344;2023-02-01T06:14:29;24.55;;;5.32;;
34725;SDS011;20951;50.818;4.344;2023-02-01T06:16:55;27.27;;;5.47;;
34725;SDS011;20951;50.818;4.344;2023-02-01T06:19:21;30.88;;;5.30;;
34725;SDS011;20951;50.818;4.344;2023-02-01T06:21:47;27.15;;;5.50;;
34725;SDS011;20951;50.818;4.344;2023-02-01T06:24:13;30.65;;;5.30;;
34725;SDS011;20951;50.818;4.344;2023-02-01T06:26:39;26.90;;;4.72;;
34725;SDS011;20951;50.818;4.344;2023-02-01T06:29:06;29.27;;;5.47;;
34725;SDS011;20951;50.818;4.344;2023-02-01T06:31:32;24.70;;;5.03;;
34725;SDS011;20951;50.818;4.344;2023-02-01T06:33:58;25.77;;;5.03;;
34725;SDS011;20951;50.818;4.344;2023-02-01T06:36:24;26.17;;;5.82;;
34725;SDS011;20951;50.818;4.344;2023-02-01T06:38:50;33.70;;;6.18;;
34725;SDS011;20951;50.818;4.344;2023-02-01T06:41:16;33.35;;;6.57;;
34725;SDS011;20951;50.818;4.344;2023-02-01T06:43:42;27.13;;;4.90;;
34725;SDS011;20951;50.818;4.344;2023-02-01T06:46:09;34.85;;;6.65;;
34725;SDS011;20951;50.818;4.344;2023-02-01T06:48:38;22.98;;;5.18;;
34725;SDS011;20951;50.818;4.344;2023-02-01T06:51:05;27.33;;;6.40;;
34725;SDS011;20951;50.818;4.344;2023-02-01T06:53:31;25.45;;;5.65;;
34725;SDS011;20951;50.818;4.344;2023-02-01T06:55:58;25.25;;;5.30;;
34725;SDS011;20951;50.818;4.344;2023-02-01T06:58:32;28.63;;;5.82;;
34725;SDS011;20951;50.818;4.344;2023-02-01T07:01:08;30.05;;;5.28;;
34725;SDS011;20951;50.818;4.344;2023-02-01T07:03:35;32.40;;;6.35;;
34725;SDS011;20951;50.818;4.344;2023-02-01T07:06:01;25.63;;;5.20;;
34725;SDS011;20951;50.818;4.344;2023-02-01T07:08:29;25.15;;;5.00;;
34725;SDS011;20951;50.818;4.344;2023-02-01T07:11:02;28.90;;;5.38;;
34725;SDS011;20951;50.818;4.344;2023-02-01T07:13:32;32.50;;;5.50;;
34725;SDS011;20951;50.818;4.344;2023-02-01T07:15:59;35.53;;;5.72;;
34725;SDS011;20951;50.818;4.344;2023-02-01T07:18:29;30.33;;;5.32;;
34725;SDS011;20951;50.818;4.344;2023-02-01T07:20:56;31.15;;;5.68;;
34725;SDS011;20951;50.818;4.344;2023-02-01T07:23:22;32.58;;;5.38;;
34725;SDS011;20951;50.818;4.344;2023-02-01T07:25:52;24.58;;;4.88;;
34725;SDS011;20951;50.818;4.344;2023-02-01T07:28:19;31.85;;;5.90;;
34725;SDS011;20951;50.818;4.344;2023-02-01T07:30:45;27.15;;;5.68;;
34725;SDS011;20951;50.818;4.344;2023-02-01T07:33:16;28.48;;;4.72;;
34725;SDS011;20951;50.818;4.344;2023-02-01T07:35:46;30.45;;;5.72;;
34725;SDS011;20951;50.818;4.344;2023-02-01T07:38:12;34.55;;;5.93;;
34725;SDS011;20951;50.818;4.344;2023-02-01T07:40:38;27.85;;;5.93;;
34725;SDS011;20951;50.818;4.344;2023-02-01T07:43:04;36.05;;;6.43;;
34725;SDS011;20951;50.818;4.344;2023-02-01T07:45:31;30.60;;;6.03;;
34725;SDS011;20951;50.818;4.344;2023-02-01T07:47:57;27.70;;;5.80;;
34725;SDS011;20951;50.818;4.344;2023-02-01T07:50:23;30.90;;;6.70;;
34725;SDS011;20951;50.818;4.344;2023-02-01T07:52:48;24.35;;;6.15;;
34725;SDS011;20951;50.818;4.344;2023-02-01T07:55:14;37.63;;;7.00;;
34725;SDS011;20951;50.818;4.344;2023-02-01T07:57:40;25.73;;;5.78;;
34725;SDS011;20951;50.818;4.344;2023-02-01T08:00:07;34.88;;;6.25;;
34725;SDS011;20951;50.818;4.344;2023-02-01T08:02:52;32.10;;;5.32;;
34725;SDS011;20951;50.818;4.344;2023-02-01T08:05:18;35.40;;;5.53;;
34725;SDS011;20951;50.818;4.344;2023-02-01T08:07:47;31.25;;;6.53;;
34725;SDS011;20951;50.818;4.344;2023-02-01T08:10:14;28.13;;;5.57;;
34725;SDS011;20951;50.818;4.344;2023-02-01T08:12:40;31.70;;;6.07;;
34725;SDS011;20951;50.818;4.344;2023-02-01T08:15:06;33.25;;;5.93;;
34725;SDS011;20951;50.818;4.344;2023-02-01T08:17:32;24.58;;;4.97;;
34725;SDS011;20951;50.818;4.344;2023-02-01T08:19:58;31.20;;;5.78;;
34725;SDS011;20951;50.818;4.344;2023-02-01T08:22:24;30.08;;;5.93;;
34725;SDS011;20951;50.818;4.344;2023-02-01T08:24:50;30.02;;;5.85;;
34725;SDS011;20951;50.818;4.344;2023-02-01T08:27:16;28.48;;;6.05;;
34725;SDS011;20951;50.818;4.344;2023-02-01T08:29:44;27.85;;;5.85;;
34725;SDS011;20951;50.818;4.344;2023-02-01T08:32:11;38.38;;;7.43;;
34725;SDS011;20951;50.818;4.344;2023-02-01T08:34:39;79.40;;;10.15;;
34725;SDS011;20951;50.818;4.344;2023-02-01T08:37:07;32.88;;;5.68;;
34725;SDS011;20951;50.818;4.344;2023-02-01T08:39:35;35.08;;;6.78;;
34725;SDS011;20951;50.818;4.344;2023-02-01T08:42:03;33.33;;;6.15;;
34725;SDS011;20951;50.818;4.344;2023-02-01T08:44:48;31.35;;;6.30;;
34725;SDS011;20951;50.818;4.344;2023-02-01T08:47:17;31.45;;;5.70;;
34725;SDS011;20951;50.818;4.344;2023-02-01T08:49:45;30.20;;;6.20;;
34725;SDS011;20951;50.818;4.344;2023-02-01T08:52:13;26.10;;;5.47;;
34725;SDS011;20951;50.818;4.344;2023-02-01T08:54:41;30.85;;;6.15;;
34725;SDS011;20951;50.818;4.344;2023-02-01T08:57:09;31.25;;;6.65;;
34725;SDS011;20951;50.818;4.344;2023-02-01T08:59:37;28.42;;;5.25;;
34725;SDS011;20951;50.818;4.344;2023-02-01T09:02:04;26.45;;;6.10;;
34725;SDS011;20951;50.818;4.344;2023-02-01T09:04:32;31.23;;;6.03;;
34725;SDS011;20951;50.818;4.344;2023-02-01T09:07:00;23.00;;;5.72;;
34725;SDS011;20951;50.818;4.344;2023-02-01T09:09:28;27.17;;;5.03;;
34725;SDS011;20951;50.818;4.344;2023-02-01T09:11:56;32.95;;;5.85;;
34725;SDS011;20951;50.818;4.344;2023-02-01T09:14:24;28.45;;;5.80;;
34725;SDS011;20951;50.818;4.344;2023-02-01T09:16:52;33.28;;;6.43;;
34725;SDS011;20951;50.818;4.344;2023-02-01T09:19:20;28.52;;;5.40;;
34725;SDS011;20951;50.818;4.344;2023-02-01T09:21:48;34.35;;;6.18;;
34725;SDS011;20951;50.818;4.344;2023-02-01T09:24:16;25.30;;;6.22;;
34725;SDS011;20951;50.818;4.344;2023-02-01T09:26:43;27.00;;;5.05;;
34725;SDS011;20951;50.818;4.344;2023-02-01T09:29:10;28.73;;;5.47;;
34725;SDS011;20951;50.818;4.344;2023-02-01T09:31:38;27.63;;;4.97;;
34725;SDS011;20951;50.818;4.344;2023-02-01T09:34:05;25.92;;;5.25;;
34725;SDS011;20951;50.818;4.344;2023-02-01T09:36:33;30.05;;;5.70;;
34725;SDS011;20951;50.818;4.344;2023-02-01T09:39:00;27.05;;;5.45;;
34725;SDS011;20951;50.818;4.344;2023-02-01T09:46:57;27.80;;;6.00;;
34725;SDS011;20951;50.818;4.344;2023-02-01T09:49:36;29.65;;;5.60;;
34725;SDS011;20951;50.818;4.344;2023-02-01T09:52:10;29.25;;;6.10;;
34725;SDS011;20951;50.818;4.344;2023-02-01T09:54:41;27.30;;;6.25;;
34725;SDS011;20951;50.818;4.344;2023-02-01T09:57:16;30.60;;;6.18;;
34725;SDS011;20951;50.818;4.344;2023-02-01T09:59:51;25.17;;;5.15;;
34725;SDS011;20951;50.818;4.344;2023-02-01T10:02:23;29.00;;;5.47;;
34725;SDS011;20951;50.818;4.344;2023-02-01T10:04:54;27.08;;;6.00;;
34725;SDS011;20951;50.818;4.344;2023-02-01T10:10:21;23.35;;;5.25;;
34725;SDS011;20951;50.818;4.344;2023-02-01T10:21:24;25.75;;;5.32;;
34725;SDS011;20951;50.818;4.344;2023-02-01T10:27:17;25.73;;;4.38;;
34725;SDS011;20951;50.818;4.344;2023-02-01T10:29:51;25.45;;;4.82;;
34725;SDS011;20951;50.818;4.344;2023-02-01T10:32:39;22.17;;;4.18;;
34725;SDS011;20951;50.818;4.344;2023-02-01T10:35:17;23.63;;;4.80;;
34725;SDS011;20951;50.818;4.344;2023-02-01T10:37:46;25.67;;;4.75;;
34725;SDS011;20951;50.818;4.344;2023-02-01T10:40:19;27.02;;;5.07;;
34725;SDS011;20951;50.818;4.344;2023-02-01T10:42:52;28.42;;;4.75;;
34725;SDS011;20951;50.818;4.344;2023-02-01T10:45:22;23.45;;;4.50;;
34725;SDS011;20951;50.818;4.344;2023-02-01T10:47:51;20.42;;;4.50;;
34725;SDS011;20951;50.818;4.344;2023-02-01T10:50:33;23.05;;;4.90;;
34725;SDS011;20951;50.818;4.344;2023-02-01T10:55:53;23.85;;;3.80;;
34725;SDS011;20951;50.818;4.344;2023-02-01T10:58:20;22.63;;;3.80;;
34725;SDS011;20951;50.818;4.344;2023-02-01T11:01:04;24.98;;;3.85;;
34725;SDS011;20951;50.818;4.344;2023-02-01T11:03:34;21.77;;;3.72;;
34725;SDS011;20951;50.818;4.344;2023-02-01T11:06:10;16.07;;;3.73;;
34725;SDS011;20951;50.818;4.344;2023-02-01T11:08:48;21.20;;;3.38;;
34725;SDS011;20951;50.818;4.344;2023-02-01T11:11:30;16.30;;;3.50;;
34725;SDS011;20951;50.818;4.344;2023-02-01T11:13:57;15.38;;;3.13;;
34725;SDS011;20951;50.818;4.344;2023-02-01T11:16:38;20.38;;;3.80;;
34725;SDS011;20951;50.818;4.344;2023-02-01T11:19:05;21.27;;;4.03;;
34725;SDS011;20951;50.818;4.344;2023-02-01T11:21:32;19.65;;;3.50;;
34725;SDS011;20951;50.818;4.344;2023-02-01T11:24:03;20.73;;;4.28;;
34725;SDS011;20951;50.818;4.344;2023-02-01T11:26:30;19.05;;;3.58;;
34725;SDS011;20951;50.818;4.344;2023-02-01T11:29:05;16.13;;;3.47;;
34725;SDS011;20951;50.818;4.344;2023-02-01T11:31:38;22.42;;;4.07;;
34725;SDS011;20951;50.818;4.344;2023-02-01T11:34:12;19.40;;;3.20;;
34725;SDS011;20951;50.818;4.344;2023-02-01T11:36:43;16.63;;;3.30;;
34725;SDS011;20951;50.818;4.344;2023-02-01T11:41:43;15.43;;;3.20;;
34725;SDS011;20951;50.818;4.344;2023-02-01T11:44:37;17.60;;;3.67;;
34725;SDS011;20951;50.818;4.344;2023-02-01T11:49:57;15.02;;;3.47;;
34725;SDS011;20951;50.818;4.344;2023-02-01T11:55:26;16.35;;;3.05;;
34725;SDS011;20951;50.818;4.344;2023-02-01T11:58:22;19.80;;;3.40;;
34725;SDS011;20951;50.818;4.344;2023-02-01T12:06:46;18.73;;;3.28;;
34725;SDS011;20951;50.818;4.344;2023-02-01T12:09:23;13.63;;;3.30;;
34725;SDS011;20951;50.818;4.344;2023-02-01T12:12:04;18.17;;;3.50;;
34725;SDS011;20951;50.818;4.344;2023-02-01T12:17:55;15.93;;;2.65;;
34725;SDS011;20951;50.818;4.344;2023-02-01T12:26:19;12.95;;;3.13;;
34725;SDS011;20951;50.818;4.344;2023-02-01T12:40:17;16.20;;;3.38;;
34725;SDS011;20951;50.818;4.344;2023-02-01T12:42:57;14.02;;;2.97;;
34725;SDS011;20951;50.818;4.344;2023-02-01T12:45:45;17.30;;;2.95;;
34725;SDS011;20951;50.818;4.344;2023-02-01T12:48:31;12.73;;;2.67;;
34725;SDS011;20951;50.818;4.344;2023-02-01T12:51:35;13.55;;;2.50;;
34725;SDS011;20951;50.818;4.344;2023-02-01T12:54:06;17.75;;;2.80;;
34725;SDS011;20951;50.818;4.344;2023-02-01T12:56:46;15.38;;;2.78;;
34725;SDS011;20951;50.818;4.344;2023-02-01T13:10:12;13.65;;;2.72;;
34725;SDS011;20951;50.818;4.344;2023-02-01T13:18:09;12.45;;;2.28;;
34725;SDS011;20951;50.818;4.344;2023-02-01T13:20:49;12.82;;;2.75;;
34725;SDS011;20951;50.818;4.344;2023-02-01T13:23:39;15.52;;;2.78;;
34725;SDS011;20951;50.818;4.344;2023-02-01T13:26:07;15.98;;;2.42;;
34725;SDS011;20951;50.818;4.344;2023-02-01T13:34:55;15.15;;;2.63;;
34725;SDS011;20951;50.818;4.344;2023-02-01T13:40:16;14.70;;;3.30;;
34725;SDS011;20951;50.818;4.344;2023-02-01T13:43:01;12.77;;;2.55;;
34725;SDS011;20951;50.818;4.344;2023-02-01T13:45:42;13.35;;;2.72;;
34725;SDS011;20951;50.818;4.344;2023-02-01T13:48:19;12.45;;;2.97;;
34725;SDS011;20951;50.818;4.344;2023-02-01T13:50:56;19.52;;;2.50;;
34725;SDS011;20951;50.818;4.344;2023-02-01T13:53:34;12.15;;;2.40;;
34725;SDS011;20951;50.818;4.344;2023-02-01T13:58:33;12.65;;;2.45;;
34725;SDS011;20951;50.818;4.344;2023-02-01T14:11:46;15.85;;;4.32;;
34725;SDS011;20951;50.818;4.344;2023-02-01T14:16:43;18.60;;;2.72;;
34725;SDS011;20951;50.818;4.344;2023-02-01T14:19:26;13.35;;;2.70;;
34725;SDS011;20951;50.818;4.344;2023-02-01T14:22:00;15.20;;;3.38;;
34725;SDS011;20951;50.818;4.344;2023-02-01T14:24:53;14.55;;;2.88;;
34725;SDS011;20951;50.818;4.344;2023-02-01T14:27:30;14.30;;;2.30;;
34725;SDS011;20951;50.818;4.344;2023-02-01T14:30:02;11.70;;;2.53;;
34725;SDS011;20951;50.818;4.344;2023-02-01T14:32:34;15.80;;;2.65;;
34725;SDS011;20951;50.818;4.344;2023-02-01T14:35:27;12.70;;;2.60;;
34725;SDS011;20951;50.818;4.344;2023-02-01T14:38:00;17.38;;;3.10;;
34725;SDS011;20951;50.818;4.344;2023-02-01T14:40:32;13.18;;;2.40;;
34725;SDS011;20951;50.818;4.344;2023-02-01T14:43:00;18.02;;;5.15;;
34725;SDS011;20951;50.818;4.344;2023-02-01T14:48:38;16.02;;;2.70;;
34725;SDS011;20951;50.818;4.344;2023-02-01T14:50:41;12.20;;;2.40;;
34725;SDS011;20951;50.818;4.344;2023-02-01T14:53:20;13.93;;;2.22;;
34725;SDS011;20951;50.818;4.344;2023-02-01T15:06:37;13.57;;;2.88;;
34725;SDS011;20951;50.818;4.344;2023-02-01T15:09:10;18.05;;;2.88;;
34725;SDS011;20951;50.818;4.344;2023-02-01T15:12:00;17.67;;;3.17;;
34725;SDS011;20951;50.818;4.344;2023-02-01T15:14:27;15.90;;;3.28;;
34725;SDS011;20951;50.818;4.344;2023-02-01T15:16:56;17.15;;;2.85;;
34725;SDS011;20951;50.818;4.344;2023-02-01T15:19:24;16.40;;;3.58;;
34725;SDS011;20951;50.818;4.344;2023-02-01T15:21:56;16.15;;;3.45;;
34725;SDS011;20951;50.818;4.344;2023-02-01T15:24:28;15.63;;;2.90;;
34725;SDS011;20951;50.818;4.344;2023-02-01T15:27:01;15.77;;;3.33;;
34725;SDS011;20951;50.818;4.344;2023-02-01T15:29:29;16.45;;;2.90;;
34725;SDS011;20951;50.818;4.344;2023-02-01T15:31:58;14.65;;;3.38;;
34725;SDS011;20951;50.818;4.344;2023-02-01T15:34:44;16.77;;;3.47;;
34725;SDS011;20951;50.818;4.344;2023-02-01T15:37:15;16.65;;;2.88;;
34725;SDS011;20951;50.818;4.344;2023-02-01T15:42:38;17.05;;;2.95;;
34725;SDS011;20951;50.818;4.344;2023-02-01T15:45:18;13.32;;;2.95;;
34725;SDS011;20951;50.818;4.344;2023-02-01T15:47:47;15.35;;;3.45;;
34725;SDS011;20951;50.818;4.344;2023-02-01T15:50:15;19.15;;;2.90;;
34725;SDS011;20951;50.818;4.344;2023-02-01T15:52:45;17.63;;;3.03;;
34725;SDS011;20951;50.818;4.344;2023-02-01T15:55:18;21.50;;;3.53;;
34725;SDS011;20951;50.818;4.344;2023-02-01T16:00:24;17.27;;;3.28;;
34725;SDS011;20951;50.818;4.344;2023-02-01T16:02:55;13.90;;;3.20;;
34725;SDS011;20951;50.818;4.344;2023-02-01T16:08:05;17.33;;;3.75;;
34725;SDS011;20951;50.818;4.344;2023-02-01T16:10:42;22.27;;;4.13;;
34725;SDS011;20951;50.818;4.344;2023-02-01T16:13:10;19.70;;;3.38;;
34725;SDS011;20951;50.818;4.344;2023-02-01T16:15:37;18.95;;;3.17;;
34725;SDS011;20951;50.818;4.344;2023-02-01T16:18:04;20.52;;;3.25;;
34725;SDS011;20951;50.818;4.344;2023-02-01T16:20:35;25.40;;;4.55;;
34725;SDS011;20951;50.818;4.344;2023-02-01T16:23:04;20.75;;;3.85;;
34725;SDS011;20951;50.818;4.344;2023-02-01T16:25:31;16.25;;;3.50;;
34725;SDS011;20951;50.818;4.344;2023-02-01T16:27:57;19.67;;;3.70;;
34725;SDS011;20951;50.818;4.344;2023-02-01T16:30:24;21.90;;;4.00;;
34725;SDS011;20951;50.818;4.344;2023-02-01T16:32:53;17.48;;;3.70;;
34725;SDS011;20951;50.818;4.344;2023-02-01T16:35:25;16.10;;;3.47;;
34725;SDS011;20951;50.818;4.344;2023-02-01T16:38:08;14.73;;;3.63;;
34725;SDS011;20951;50.818;4.344;2023-02-01T16:40:39;20.13;;;3.85;;
34725;SDS011;20951;50.818;4.344;2023-02-01T16:43:16;19.30;;;3.75;;
34725;SDS011;20951;50.818;4.344;2023-02-01T16:45:46;20.13;;;3.97;;
34725;SDS011;20951;50.818;4.344;2023-02-01T16:48:23;19.92;;;4.00;;
34725;SDS011;20951;50.818;4.344;2023-02-01T16:50:58;19.88;;;3.78;;
34725;SDS011;20951;50.818;4.344;2023-02-01T16:53:32;21.83;;;3.92;;
34725;SDS011;20951;50.818;4.344;2023-02-01T16:55:58;19.13;;;3.90;;
34725;SDS011;20951;50.818;4.344;2023-02-01T16:58:27;30.05;;;5.80;;
34725;SDS011;20951;50.818;4.344;2023-02-01T17:00:54;16.90;;;4.20;;
34725;SDS011;20951;50.818;4.344;2023-02-01T17:03:22;25.75;;;5.18;;
34725;SDS011;20951;50.818;4.344;2023-02-01T17:05:50;21.42;;;4.45;;
34725;SDS011;20951;50.818;4.344;2023-02-01T17:08:27;22.65;;;7.20;;
34725;SDS011;20951;50.818;4.344;2023-02-01T17:10:58;21.75;;;4.55;;
34725;SDS011;20951;50.818;4.344;2023-02-01T17:13:26;20.58;;;4.22;;
34725;SDS011;20951;50.818;4.344;2023-02-01T17:16:04;24.85;;;4.22;;
34725;SDS011;20951;50.818;4.344;2023-02-01T17:18:46;22.25;;;4.22;;
34725;SDS011;20951;50.818;4.344;2023-02-01T17:21:29;20.55;;;4.53;;
34725;SDS011;20951;50.818;4.344;2023-02-01T17:24:01;17.35;;;3.78;;
34725;SDS011;20951;50.818;4.344;2023-02-01T17:26:28;23.38;;;4.65;;
34725;SDS011;20951;50.818;4.344;2023-02-01T17:28:56;27.55;;;5.32;;